Loisir ou Compétition : Rejoignez un Club de la Fédération

Résultats

CHALLENGE NATIONAL U15 BIATHLON DAMES

BESSANS

MASS Dames

Jury de Compétition

Délégué Technique :
VASSALLO CHRISTOPHE (MB)
D.T. Adjoint :
LEJEUNE DAMIEN (MV)
Dir. Epreuve :
 
Chef Pas de Tir :
 

Caractéristiques de la Piste

Piste :
 
Distance :
4,5 km
Point Haut :
 
Point Bas :
 
Montée Tot. :
 
Montée Max. :
 
Homologation :
 

Pénalité Appliquée :
0.0000
Coefficient :
 

Catégorie :
U15
Style :
 
Type de Tir :
C-D
Clt Dos Clt/Cat Code An Nom Prénom Com Club Temps Pena Tps Tot Ecart Points
Classés
1 3 1/U15 FFS2681492 2006 DUSSERRE ALICE DA CS VILLARD 16:16.9 1-0- - 16:16.9 00:00.0 0.00
2 7 2/U15 FFS2692223 2006 CART LAMY LISA MJ BOIS D'AMONT 16:48.5 1-1- - 16:48.5 00:31.6 38.82
3 6 3/U15 FFS2670610 2006 JACOB JULIANE MV BASS/RUPT SN 16:58.0 1-0- - 16:58.0 00:41.1 50.49
4 12 4/U15 FFS2676140 2005 DODE LILY DA SNO 17:08.6 2-2- - 17:08.6 00:51.7 63.51
5 49 5/U15 FFS2691438 2006 ROGUET LOUISE MB PRAZ LYS-SOM 17:10.2 1-1- - 17:10.2 00:53.3 65.47
6 40 6/U15 FFS2669635 2005 CHARLET ANGELINA MB CS ARGENTIER 17:14.1 1-2- - 17:14.1 00:57.2 70.26
7 20 7/U15 FFS2675909 2005 GIUNTA CHARLOTTE SA SC MENUIRES 17:17.5 1-1- - 17:17.5 01:00.6 74.44
8 53 8/U15 FFS2664946 2005 FONTAINE THEMICE SA CS SAISIES 17:23.2 1-2- - 17:23.2 01:06.3 81.44
9 9 9/U15 FFS2670330 2005 FOULON JUSTINE DA CS VILLARD 17:31.2 2-1- - 17:31.2 01:14.3 91.27
10 23 10/U15 FFS2686851 2005 BENED JUSTINE MB CHABLAIS NOR 17:38.1 1-3- - 17:38.1 01:21.2 99.74
11 8 11/U15 FFS2686685 2005 DUPONT BALLET BAZ LOU ANN MB CS LA CLUSAZ 17:48.9 3-2- - 17:48.9 01:32.0 113.01
12 17 12/U15 FFS2664204 2005 LOOSEN LEA SA CS SAISIES 17:49.8 1-2- - 17:49.8 01:32.9 114.12
13 4 13/U15 FFS2682758 2005 MAUPOIX CAMILLE DA CO 7 LAUX GR 17:55.0 3-1- - 17:55.0 01:38.1 120.50
14 29 14/U15 FFS2691946 2006 MARGUET LOUISE MJ SC FRASNE DR 17:58.2 1-3- - 17:58.2 01:41.3 124.43
15 28 15/U15 FFS2686699 2005 PERRILLAT BOTTONET MANON MB SC GD BORNAN 18:01.2 3-2- - 18:01.2 01:44.3 128.12
16 1 16/U15 FFS2666247 2005 CORREIA MAELA MV LA BRESSAUDE 18:01.3 1-3- - 18:01.3 01:44.4 128.24
17 37 17/U15 FFS2676072 2006 BREYTON BOUVIER LIV DA SN CHARTROUS 18:02.3 2-2- - 18:02.3 01:45.4 129.47
18 44 18/U15 FFS2683518 2005 DEBLOEM MARINE LY SC LOMPNES 18:03.6 1-1- - 18:03.6 01:46.7 131.07
19 19 19/U15 FFS2690476 2005 GALMACE PAULIN VOLDIYA MB VILLARD/BOEG 18:05.5 1-4- - 18:05.5 01:48.6 133.40
20 46 20/U15 FFS2672566 2005 BAUDRY LORENA MB CS MEGEVE 18:19.4 1-3- - 18:19.4 02:02.5 150.48
21 16 21/U15 FFS2691061 2005 MERLE MAELISS CE SCM LOZERE 18:23.3 1-2- - 18:23.3 02:06.4 155.27
22 67 22/U15 FFS2687240 2006 FERRUS MANON AP AS EDELWEISS 18:25.7 2-0- - 18:25.7 02:08.8 158.21
23 2 23/U15 FFS2676911 2005 TIRLOY MARGOT MB CS LA CLUSAZ 18:35.7 4-4- - 18:35.7 02:18.8 170.50
24 59 24/U15 FFS2684409 2006 MORETTI LENA DA CS VILLARD 18:37.0 1-5- - 18:37.0 02:20.1 172.10
25 15 25/U15 FFS2691595 2006 BOUILLET LOUNA MJ SC GRANDVAUX 18:38.1 3-3- - 18:38.1 02:21.2 173.45
26 24 26/U15 FFS2687431 2005 BLANC LAURYNE SA SC ARECHES 18:39.0 2-1- - 18:39.0 02:22.1 174.55
27 5 27/U15 FFS2686218 2006 CANDAU ARMAND NAMOU SA BAUGES S.N 18:39.9 5-1- - 18:39.9 02:23.0 175.66
28 13 28/U15 FFS2681305 2005 FAVRE CHLOE MB DRAGONS ANNY 18:52.8 1-4- - 18:52.8 02:35.9 191.50
29 21 29/U15 FFS2677957 2006 LEJEUNE JUSTINE MV BASS/RUPT SN 18:53.9 0-3- - 18:53.9 02:37.0 192.85
30 84 30/U15 FFS2689652 2006 FINE SOLENE AP SERRE CHEVAL 18:54.7 1-4- - 18:54.7 02:37.8 193.84
31 45 31/U15 FFS2674568 2006 BUISSON LEANDRA MB CS MEGEVE 18:55.4 2-2- - 18:55.4 02:38.5 194.70
32 14 32/U15 FFS2686215 2006 COMAS DE MIRANDA LISON SA BAUGES S.N 18:57.5 2-4- - 18:57.5 02:40.6 197.28
33 35 33/U15 FFS2686668 2005 BARONE CAMILLE MB SC GD BORNAN 19:00.4 4-3- - 19:00.4 02:43.5 200.84
34 11 34/U15 FFS2692329 2006 BAUD ROMANE MJ OLYMP MT DOR 19:02.5 2-1- - 19:02.5 02:45.6 203.42
35 31 35/U15 FFS2694138 2005 CAT JULIE MJ SC MONT NOIR 19:03.0 1-4- - 19:03.0 02:46.1 204.03
36 25 36/U15 FFS2692251 2006 ORVAIN CHLOE MB SCNP ROCHOIS 19:03.5 3-3- - 19:03.5 02:46.6 204.65
36 56 36/U15 FFS2671757 2005 GONTHARET CHARLOTTE SA SC PEISEY VA 19:03.5 2-3- - 19:03.5 02:46.6 204.65
38 34 38/U15 FNS460881 2006 TRIPONEZ MAELINE SUI 19:04.1 2-3- - 19:04.1 02:47.2 205.38
39 30 39/U15 FFS2662837 2005 MARTIN ANDREA SA CS MERIBEL 19:12.7 1-1- - 19:12.7 02:55.8 215.95
40 22 40/U15 FFS2694212 2005 JEANTET MAE MJ A.S MOUTHE 19:14.8 3-4- - 19:14.8 02:57.9 218.53
41 47 41/U15 FFS2687284 2005 BOUVERET ELISA MJ SC GRANDVAUX 19:16.0 0-4- - 19:16.0 02:59.1 220.00
42 38 42/U15 FFS2694328 2005 ARDIET ABIGAEL MJ A.S MOUTHE 19:17.6 2-2- - 19:17.6 03:00.7 221.97
43 32 43/U15 FFS2675761 2006 PELLEGRIN MELYNE DA SNB CHAMROUS 19:18.4 1-5- - 19:18.4 03:01.5 222.95
44 62 44/U15 FFS2665480 2006 GRAVIER MARION SA CS VAL CENIS 19:21.0 4-4- - 19:21.0 03:04.1 226.14
45 18 45/U15 FFS2660240 2005 VINCENT CHLOE MJ PREMANON SC 19:21.3 1-5- - 19:21.3 03:04.4 226.51
46 10 46/U15 FFS2665534 2005 BOUSSARD SIDONIE MV BASS/RUPT SN 19:22.6 3-2- - 19:22.6 03:05.7 228.11
47 39 47/U15 FFS2692320 2005 PROVOST MANON MJ OLYMP MT DOR 19:24.0 2-2- - 19:24.0 03:07.1 229.83
48 43 48/U15 FFS2683414 2005 VASSEL LOU ANN AP LES TROLLS 19:28.9 1-2- - 19:28.9 03:12.0 235.85
49 26 49/U15 FFS2681736 2005 HAMMERER CAMILLE SA SC PEISEY VA 19:29.2 3-4- - 19:29.2 03:12.3 236.22
50 77 50/U15 FFS2681403 2006 CHEVRIER CLOTILDE SA CS LA FECLAZ 19:31.8 1-3- - 19:31.8 03:14.9 239.41
51 36 51/U15 FFS2686334 2006 PIC CALINE DA SNB CHAMROUS 19:32.6 3-3- - 19:32.6 03:15.7 240.39
52 76 52/U15 FFS2666697 2006 BRAY ELISA SA CS SAISIES 19:40.7 3-2- - 19:40.7 03:23.8 250.34
53 63 53/U15 FFS2701917 2005 BECK LILI PE CS FT ROMEU 19:50.2 4-4- - 19:50.2 03:33.3 262.01
54 52 54/U15 FFS2681412 2006 HOUOT ELISE SA CS LA FECLAZ 19:58.1 4-3- - 19:58.1 03:41.2 271.72
55 83 55/U15 FFS2667872 2005 BONNARDEL MELIA AP SERRE CHEVAL 19:59.0 0-4- - 19:59.0 03:42.1 272.82
56 33 56/U15 FFS2691910 2006 HENRIET ANNA MJ ES SAUGETTE 19:59.6 2-2- - 19:59.6 03:42.7 273.56
57 57 57/U15 FFS2686797 2005 PIGNOT ARIANE MB SC D'AGY 20:03.0 5-4- - 20:03.0 03:46.1 277.74
58 73 58/U15 FFS2682358 2006 BARDINET FANTINE DA SNO 20:03.1 4-4- - 20:03.1 03:46.2 277.86
59 75 59/U15 FFS2696668 2006 BOURGON JEANNE MJ SC VERRIERES 20:03.6 2-4- - 20:03.6 03:46.7 278.47
60 72 60/U15 FFS2694358 2005 MINA CONESA ELINE PE SC BEILLE 20:04.0 2-4- - 20:04.0 03:47.1 278.96
61 66 61/U15 FFS2701778 2006 BOURGEOIS ARMURIER ISALIN MJ CHAUX NEUVE 20:10.5 2-5- - 20:10.5 03:53.6 286.95
62 74 62/U15 FFS2681166 2006 BOUDIN LOLA LY SC BRENOD 20:11.5 2-4- - 20:11.5 03:54.6 288.18
63 55 63/U15 FFS2692290 2006 VASSAL LILI DA CS VILLARD 20:19.6 3-3- - 20:19.6 04:02.7 298.13
64 27 64/U15 FFS2696559 2006 GILLET LUCIE MJ CSR PONTARLI 20:24.6 4-5- - 20:24.6 04:07.7 304.27
65 64 65/U15 FFS2677798 2006 COMBEAU ROMANE DA SNO 20:29.1 4-3- - 20:29.1 04:12.2 309.80
66 61 66/U15 FFS2681540 2005 TRILLAT ORIANE SA BAUGES S.N 20:53.4 5-3- - 20:53.4 04:36.5 339.65
67 71 67/U15 FFS2681409 2006 COURTIEU TORI SA CS LA FECLAZ 20:57.9 3-5- - 20:57.9 04:41.0 345.17
68 50 68/U15 FFS2697035 2006 ABBADIE CLEMENCE PE SC AZUN 21:13.8 3-3- - 21:13.8 04:56.9 364.70
69 70 69/U15 FFS2670765 2006 RICARD NINA SA CS KARELLIS 21:30.2 4-5- - 21:30.2 05:13.3 384.85
70 42 70/U15 FFS2682396 2005 GERARD GESLIN VALENTINE SA SC ARECHES 21:42.3 2-4- - 21:42.3 05:25.4 399.71
71 79 71/U15 FFS2694357 2005 LOUBET MANON PE SC BEILLE 22:04.4 3-3- - 22:04.4 05:47.5 426.86
72 81 72/U15 FFS2669636 2006 POUSSARD HEIDI SA CS SAISIES 22:09.1 4-5- - 22:09.1 05:52.2 432.63
73 58 73/U15 FFS2687130 2006 LONCHAMPT LISON MJ PREMANON SC 22:29.2 5-4- - 22:29.2 06:12.3 457.32
74 78 74/U15 FFS2676998 2006 GRITTI ADRIELLE LY US CORMARANC 22:34.1 4-5- - 22:34.1 06:17.2 463.34
75 80 75/U15 FFS2691683 2006 MARJOLET SOLENE LY US CORMARANC 22:37.2 3-4- - 22:37.2 06:20.3 467.15
76 69 76/U15 FFS2686627 2005 MAILLET CANDICE MB CS CHAMONIX 22:43.0 4-3- - 22:43.0 06:26.1 474.28
77 60 77/U15 FFS2701070 2005 FISCHER CAPUCINE MV MOLSHEIM SN 23:00.1 2-4- - 23:00.1 06:43.2 495.28
78 65 78/U15 FFS2701776 2006 MICHAUD FIDEY MANON MJ CHAUX NEUVE 23:10.3 2-4- - 23:10.3 06:53.4 507.81
79 68 79/U15 FFS2670941 2006 RAIBERTI LILY SA CS MERIBEL 23:25.0 3-4- - 23:25.0 07:08.1 525.87
Abandons
48 FFS2686256 2006 AUBEL SACHA MV MOLSHEIM SN
Non partants
41 FFS2673598 2005 COLLET LEA AP LES TROLLS
51 FFS2686852 2005 BENED NINON MB CHABLAIS NOR
54 FFS2687898 2005 JULLIARD MAYLIS MB SALLANCHES